createdAt,value
2023-02-23T00:22:44.521Z,22.2
2023-02-23T00:53:01.437Z,24.3
2023-02-23T01:23:21.093Z,22.7
2023-02-23T01:53:38.300Z,25.8
2023-02-23T02:24:01.575Z,25
2023-02-23T02:54:19.564Z,25.4
2023-02-23T03:24:36.978Z,27.7
2023-02-23T03:54:54.745Z,27
2023-02-23T04:25:11.676Z,28
2023-02-23T04:55:31.137Z,28.4
2023-02-23T05:25:49.163Z,32.3
2023-02-23T05:56:07.755Z,45.2
2023-02-23T06:26:25.449Z,30.6
2023-02-23T06:56:42.421Z,33.1
2023-02-23T07:27:05.845Z,32.4
2023-02-23T07:57:24.980Z,29.7
2023-02-23T08:27:43.467Z,28.8
2023-02-23T08:58:05.920Z,24.1
2023-02-23T09:28:30.233Z,17.4
2023-02-23T09:58:54.282Z,14.3
2023-02-23T10:29:12.305Z,16.8
2023-02-23T10:59:27.841Z,7.6
2023-02-23T11:29:44.824Z,9
2023-02-23T12:00:01.427Z,11.2
2023-02-23T12:30:21.429Z,6.5
2023-02-23T13:00:43.998Z,6.9
2023-02-23T13:31:02.948Z,7.2
2023-02-23T14:01:22.161Z,6.5
2023-02-23T14:31:40.856Z,7.6
2023-02-23T15:01:56.449Z,7.1
2023-02-23T15:32:12.037Z,6.8
2023-02-23T16:02:27.649Z,6
2023-02-23T16:32:44.285Z,8.2
2023-02-23T17:03:00.271Z,8.2
2023-02-23T17:33:17.201Z,8.7
2023-02-23T18:03:33.322Z,10.2
2023-02-23T18:33:56.309Z,13.1
2023-02-23T19:04:13.449Z,13.8
2023-02-23T19:34:33.776Z,11.1
2023-02-23T20:04:51.960Z,11.7
2023-02-23T20:35:09.525Z,10.3
2023-02-23T21:05:26.421Z,13.8
2023-02-23T21:35:44.035Z,12.2
2023-02-23T22:06:01.162Z,12.7
